sensor_id;sensor_type;location;lat;lon;timestamp;temperature;humidity
26589;DHT22;14235;48.532;8.722;2023-02-14T00:01:47;0.70;99.90
26589;DHT22;14235;48.532;8.722;2023-02-14T00:04:14;0.90;99.90
26589;DHT22;14235;48.532;8.722;2023-02-14T00:06:40;0.90;99.90
26589;DHT22;14235;48.532;8.722;2023-02-14T00:09:10;0.80;99.90
26589;DHT22;14235;48.532;8.722;2023-02-14T00:11:36;0.70;99.90
26589;DHT22;14235;48.532;8.722;2023-02-14T00:14:02;0.70;99.90
26589;DHT22;14235;48.532;8.722;2023-02-14T00:16:46;0.90;99.90
26589;DHT22;14235;48.532;8.722;2023-02-14T00:19:13;0.70;99.90
26589;DHT22;14235;48.532;8.722;2023-02-14T00:21:40;0.60;99.90
26589;DHT22;14235;48.532;8.722;2023-02-14T00:24:08;1.10;99.90
26589;DHT22;14235;48.532;8.722;2023-02-14T00:26:34;0.60;99.90
26589;DHT22;14235;48.532;8.722;2023-02-14T00:29:03;0.60;99.90
26589;DHT22;14235;48.532;8.722;2023-02-14T00:43:46;0.90;99.90
26589;DHT22;14235;48.532;8.722;2023-02-14T00:46:13;0.60;99.90
26589;DHT22;14235;48.532;8.722;2023-02-14T00:48:38;0.40;99.90
26589;DHT22;14235;48.532;8.722;2023-02-14T00:51:04;0.70;99.90
26589;DHT22;14235;48.532;8.722;2023-02-14T00:53:29;0.60;99.90
26589;DHT22;14235;48.532;8.722;2023-02-14T00:55:55;0.50;99.90
26589;DHT22;14235;48.532;8.722;2023-02-14T00:58:20;0.60;99.90
26589;DHT22;14235;48.532;8.722;2023-02-14T01:00:46;0.60;99.90
26589;DHT22;14235;48.532;8.722;2023-02-14T01:03:12;0.50;99.90
26589;DHT22;14235;48.532;8.722;2023-02-14T01:05:37;0.50;99.90
26589;DHT22;14235;48.532;8.722;2023-02-14T01:08:03;0.60;99.90
26589;DHT22;14235;48.532;8.722;2023-02-14T01:10:29;0.60;99.90
26589;DHT22;14235;48.532;8.722;2023-02-14T01:12:54;0.30;99.90
26589;DHT22;14235;48.532;8.722;2023-02-14T01:15:20;0.50;99.90
26589;DHT22;14235;48.532;8.722;2023-02-14T01:17:46;0.40;99.90
26589;DHT22;14235;48.532;8.722;2023-02-14T01:20:11;0.30;99.90
26589;DHT22;14235;48.532;8.722;2023-02-14T01:22:39;0.30;99.90
26589;DHT22;14235;48.532;8.722;2023-02-14T01:25:05;0.70;99.90
26589;DHT22;14235;48.532;8.722;2023-02-14T01:27:31;0.50;99.90
26589;DHT22;14235;48.532;8.722;2023-02-14T01:29:56;0.40;99.90
26589;DHT22;14235;48.532;8.722;2023-02-14T01:32:22;0.50;99.90
26589;DHT22;14235;48.532;8.722;2023-02-14T01:34:48;0.50;99.90
26589;DHT22;14235;48.532;8.722;2023-02-14T01:37:13;0.30;99.90
26589;DHT22;14235;48.532;8.722;2023-02-14T01:39:39;0.20;99.90
26589;DHT22;14235;48.532;8.722;2023-02-14T01:42:05;0.40;99.90
26589;DHT22;14235;48.532;8.722;2023-02-14T01:46:57;0.20;99.90
26589;DHT22;14235;48.532;8.722;2023-02-14T01:49:27;0.20;99.90
26589;DHT22;14235;48.532;8.722;2023-02-14T01:52:13;0.20;99.90
26589;DHT22;14235;48.532;8.722;2023-02-14T01:54:48;1.10;99.90
26589;DHT22;14235;48.532;8.722;2023-02-14T01:57:18;0.40;99.90
26589;DHT22;14235;48.532;8.722;2023-02-14T01:59:50;0.10;99.90
26589;DHT22;14235;48.532;8.722;2023-02-14T02:02:16;0.10;99.90
26589;DHT22;14235;48.532;8.722;2023-02-14T02:04:48;0.10;99.90
26589;DHT22;14235;48.532;8.722;2023-02-14T02:07:21;0.10;99.90
26589;DHT22;14235;48.532;8.722;2023-02-14T02:12:16;0.20;99.90
26589;DHT22;14235;48.532;8.722;2023-02-14T02:28:14;0.20;99.90
26589;DHT22;14235;48.532;8.722;2023-02-14T02:44:24;-0.10;99.90
26589;DHT22;14235;48.532;8.722;2023-02-14T02:47:05;-0.10;99.90
26589;DHT22;14235;48.532;8.722;2023-02-14T02:52:44;0.00;99.90
26589;DHT22;14235;48.532;8.722;2023-02-14T02:58:55;1.50;99.90
26589;DHT22;14235;48.532;8.722;2023-02-14T03:01:36;-0.20;99.90
26589;DHT22;14235;48.532;8.722;2023-02-14T03:04:06;0.20;99.90
26589;DHT22;14235;48.532;8.722;2023-02-14T03:06:51;-0.20;99.90
26589;DHT22;14235;48.532;8.722;2023-02-14T03:11:57;-0.20;99.90
26589;DHT22;14235;48.532;8.722;2023-02-14T03:14:33;-0.30;99.90
26589;DHT22;14235;48.532;8.722;2023-02-14T03:17:11;-0.30;99.90
26589;DHT22;14235;48.532;8.722;2023-02-14T03:22:49;-0.40;99.90
26589;DHT22;14235;48.532;8.722;2023-02-14T03:25:42;-0.10;99.90
26589;DHT22;14235;48.532;8.722;2023-02-14T03:28:29;-0.20;99.90
26589;DHT22;14235;48.532;8.722;2023-02-14T03:31:01;-0.20;99.90
26589;DHT22;14235;48.532;8.722;2023-02-14T03:33:39;-0.30;99.90
26589;DHT22;14235;48.532;8.722;2023-02-14T03:36:13;-0.40;99.90
26589;DHT22;14235;48.532;8.722;2023-02-14T03:38:48;-0.20;99.90
26589;DHT22;14235;48.532;8.722;2023-02-14T03:41:20;-0.30;99.90
26589;DHT22;14235;48.532;8.722;2023-02-14T03:43:53;-0.30;99.90
26589;DHT22;14235;48.532;8.722;2023-02-14T03:46:25;-0.30;99.90
26589;DHT22;14235;48.532;8.722;2023-02-14T03:48:54;-0.50;99.90
26589;DHT22;14235;48.532;8.722;2023-02-14T03:51:22;-0.40;99.90
26589;DHT22;14235;48.532;8.722;2023-02-14T03:53:52;-0.50;99.90
26589;DHT22;14235;48.532;8.722;2023-02-14T03:59:16;-0.20;99.90
26589;DHT22;14235;48.532;8.722;2023-02-14T04:02:04;-0.50;99.90
26589;DHT22;14235;48.532;8.722;2023-02-14T04:04:34;-0.40;99.90
26589;DHT22;14235;48.532;8.722;2023-02-14T04:07:27;-0.50;99.90
26589;DHT22;14235;48.532;8.722;2023-02-14T04:09:53;-0.50;99.90
26589;DHT22;14235;48.532;8.722;2023-02-14T04:12:19;-0.50;99.90
26589;DHT22;14235;48.532;8.722;2023-02-14T04:14:45;-0.60;99.90
26589;DHT22;14235;48.532;8.722;2023-02-14T04:17:10;-0.80;99.90
26589;DHT22;14235;48.532;8.722;2023-02-14T04:19:55;-0.70;99.90
26589;DHT22;14235;48.532;8.722;2023-02-14T04:22:20;-0.70;99.90
26589;DHT22;14235;48.532;8.722;2023-02-14T04:24:46;-0.80;99.90
26589;DHT22;14235;48.532;8.722;2023-02-14T04:27:12;-0.70;99.90
26589;DHT22;14235;48.532;8.722;2023-02-14T04:29:43;-0.70;99.90
26589;DHT22;14235;48.532;8.722;2023-02-14T04:32:11;-0.80;99.90
26589;DHT22;14235;48.532;8.722;2023-02-14T04:34:37;-0.90;99.90
26589;DHT22;14235;48.532;8.722;2023-02-14T04:37:03;-0.80;99.90
26589;DHT22;14235;48.532;8.722;2023-02-14T04:39:29;-0.10;99.90
26589;DHT22;14235;48.532;8.722;2023-02-14T04:41:55;-0.80;99.90
26589;DHT22;14235;48.532;8.722;2023-02-14T04:44:21;-0.90;99.90
26589;DHT22;14235;48.532;8.722;2023-02-14T04:46:46;-0.80;99.90
26589;DHT22;14235;48.532;8.722;2023-02-14T04:49:14;-0.80;99.90
26589;DHT22;14235;48.532;8.722;2023-02-14T04:51:40;-0.80;99.90
26589;DHT22;14235;48.532;8.722;2023-02-14T04:54:06;-0.90;99.90
26589;DHT22;14235;48.532;8.722;2023-02-14T04:56:32;-1.00;99.90
26589;DHT22;14235;48.532;8.722;2023-02-14T04:58:57;-1.00;99.90
26589;DHT22;14235;48.532;8.722;2023-02-14T05:01:23;-0.90;99.90
26589;DHT22;14235;48.532;8.722;2023-02-14T05:03:48;-0.90;99.90
26589;DHT22;14235;48.532;8.722;2023-02-14T05:08:41;-0.90;99.90
26589;DHT22;14235;48.532;8.722;2023-02-14T05:11:06;-1.00;99.90
26589;DHT22;14235;48.532;8.722;2023-02-14T05:13:34;-0.90;99.90
26589;DHT22;14235;48.532;8.722;2023-02-14T05:16:00;-0.90;99.90
26589;DHT22;14235;48.532;8.722;2023-02-14T05:18:26;-1.00;99.90
26589;DHT22;14235;48.532;8.722;2023-02-14T05:20:53;-1.00;99.90
26589;DHT22;14235;48.532;8.722;2023-02-14T05:23:19;-1.10;99.90
26589;DHT22;14235;48.532;8.722;2023-02-14T05:25:49;-1.10;99.90
26589;DHT22;14235;48.532;8.722;2023-02-14T05:28:16;-1.30;99.90
26589;DHT22;14235;48.532;8.722;2023-02-14T05:30:42;-1.10;99.90
26589;DHT22;14235;48.532;8.722;2023-02-14T05:33:08;-1.10;99.90
26589;DHT22;14235;48.532;8.722;2023-02-14T05:35:33;-1.30;99.90
26589;DHT22;14235;48.532;8.722;2023-02-14T05:37:59;-1.30;99.90
26589;DHT22;14235;48.532;8.722;2023-02-14T05:40:26;-1.50;99.90
26589;DHT22;14235;48.532;8.722;2023-02-14T05:42:53;-1.50;99.90
26589;DHT22;14235;48.532;8.722;2023-02-14T05:45:20;-1.60;99.90
26589;DHT22;14235;48.532;8.722;2023-02-14T05:47:47;-1.50;99.90
26589;DHT22;14235;48.532;8.722;2023-02-14T05:50:13;-1.40;99.90
26589;DHT22;14235;48.532;8.722;2023-02-14T05:52:39;-1.40;99.90
26589;DHT22;14235;48.532;8.722;2023-02-14T05:55:05;-1.30;99.90
26589;DHT22;14235;48.532;8.722;2023-02-14T05:57:31;-1.40;99.90
26589;DHT22;14235;48.532;8.722;2023-02-14T05:59:57;-1.60;99.90
26589;DHT22;14235;48.532;8.722;2023-02-14T06:02:22;-1.60;99.90
26589;DHT22;14235;48.532;8.722;2023-02-14T06:04:48;-1.50;99.90
26589;DHT22;14235;48.532;8.722;2023-02-14T06:07:14;-1.60;99.90
26589;DHT22;14235;48.532;8.722;2023-02-14T06:09:39;-1.50;99.90
26589;DHT22;14235;48.532;8.722;2023-02-14T06:12:05;-1.40;99.90
26589;DHT22;14235;48.532;8.722;2023-02-14T06:14:31;-1.30;99.90
26589;DHT22;14235;48.532;8.722;2023-02-14T06:16:56;-1.30;99.90
26589;DHT22;14235;48.532;8.722;2023-02-14T06:19:22;-1.30;99.90
26589;DHT22;14235;48.532;8.722;2023-02-14T06:21:48;-1.40;99.90
26589;DHT22;14235;48.532;8.722;2023-02-14T06:24:13;-1.40;99.90
26589;DHT22;14235;48.532;8.722;2023-02-14T06:26:39;-1.50;99.90
26589;DHT22;14235;48.532;8.722;2023-02-14T06:29:05;-1.40;99.90
26589;DHT22;14235;48.532;8.722;2023-02-14T06:31:30;-1.50;99.90
26589;DHT22;14235;48.532;8.722;2023-02-14T06:33:56;-1.40;99.90
26589;DHT22;14235;48.532;8.722;2023-02-14T06:36:22;-1.40;99.90
26589;DHT22;14235;48.532;8.722;2023-02-14T06:38:48;-1.40;99.90
26589;DHT22;14235;48.532;8.722;2023-02-14T06:41:15;-1.40;99.90
26589;DHT22;14235;48.532;8.722;2023-02-14T06:43:42;-1.40;99.90
26589;DHT22;14235;48.532;8.722;2023-02-14T06:46:09;-1.30;99.90
26589;DHT22;14235;48.532;8.722;2023-02-14T06:48:35;-1.30;99.90
26589;DHT22;14235;48.532;8.722;2023-02-14T06:51:01;-1.60;99.90
26589;DHT22;14235;48.532;8.722;2023-02-14T06:53:27;-1.60;99.90
26589;DHT22;14235;48.532;8.722;2023-02-14T06:55:53;-1.60;99.90
26589;DHT22;14235;48.532;8.722;2023-02-14T06:58:18;-1.50;99.90
26589;DHT22;14235;48.532;8.722;2023-02-14T07:00:44;-1.50;99.90
26589;DHT22;14235;48.532;8.722;2023-02-14T07:03:10;-1.70;99.90
26589;DHT22;14235;48.532;8.722;2023-02-14T07:05:36;-1.70;99.90
26589;DHT22;14235;48.532;8.722;2023-02-14T07:08:01;-1.90;99.90
26589;DHT22;14235;48.532;8.722;2023-02-14T07:10:27;-1.90;99.90
26589;DHT22;14235;48.532;8.722;2023-02-14T07:12:53;-2.10;99.90
26589;DHT22;14235;48.532;8.722;2023-02-14T07:15:19;-2.00;99.90
26589;DHT22;14235;48.532;8.722;2023-02-14T07:17:44;-1.90;99.90
26589;DHT22;14235;48.532;8.722;2023-02-14T07:20:11;-1.90;99.90
26589;DHT22;14235;48.532;8.722;2023-02-14T07:22:37;-1.80;99.90
26589;DHT22;14235;48.532;8.722;2023-02-14T07:25:04;-1.80;99.90
26589;DHT22;14235;48.532;8.722;2023-02-14T07:27:31;-1.60;99.90
26589;DHT22;14235;48.532;8.722;2023-02-14T07:34:49;-1.90;99.90
26589;DHT22;14235;48.532;8.722;2023-02-14T07:37:15;-1.50;99.90
26589;DHT22;14235;48.532;8.722;2023-02-14T07:39:44;-1.50;99.90
26589;DHT22;14235;48.532;8.722;2023-02-14T07:42:10;-1.50;99.90
26589;DHT22;14235;48.532;8.722;2023-02-14T07:44:37;-1.40;99.90
26589;DHT22;14235;48.532;8.722;2023-02-14T07:47:07;-1.60;99.90
26589;DHT22;14235;48.532;8.722;2023-02-14T07:49:34;-1.60;99.90
26589;DHT22;14235;48.532;8.722;2023-02-14T07:51:59;-1.50;99.90
26589;DHT22;14235;48.532;8.722;2023-02-14T07:54:25;-1.40;99.90
26589;DHT22;14235;48.532;8.722;2023-02-14T07:56:52;-1.40;99.90
26589;DHT22;14235;48.532;8.722;2023-02-14T07:59:17;-1.40;99.90
26589;DHT22;14235;48.532;8.722;2023-02-14T08:01:43;-1.30;99.90
26589;DHT22;14235;48.532;8.722;2023-02-14T08:04:09;-1.30;99.90
26589;DHT22;14235;48.532;8.722;2023-02-14T08:06:34;-1.30;99.90
26589;DHT22;14235;48.532;8.722;2023-02-14T08:09:00;-1.20;99.90
26589;DHT22;14235;48.532;8.722;2023-02-14T08:11:25;-0.90;99.90
26589;DHT22;14235;48.532;8.722;2023-02-14T08:14:09;-1.20;99.90
26589;DHT22;14235;48.532;8.722;2023-02-14T08:16:35;-1.10;99.90
26589;DHT22;14235;48.532;8.722;2023-02-14T08:19:02;-1.10;99.90
26589;DHT22;14235;48.532;8.722;2023-02-14T08:21:28;-0.50;99.90
26589;DHT22;14235;48.532;8.722;2023-02-14T08:23:54;-1.00;99.90
26589;DHT22;14235;48.532;8.722;2023-02-14T08:26:19;-1.00;99.90
26589;DHT22;14235;48.532;8.722;2023-02-14T08:28:45;-0.80;99.90
26589;DHT22;14235;48.532;8.722;2023-02-14T08:31:10;-0.90;99.90
26589;DHT22;14235;48.532;8.722;2023-02-14T08:33:36;-0.80;99.90
26589;DHT22;14235;48.532;8.722;2023-02-14T08:36:02;-0.80;99.90
26589;DHT22;14235;48.532;8.722;2023-02-14T08:38:28;-0.70;99.90
26589;DHT22;14235;48.532;8.722;2023-02-14T08:40:58;-0.70;99.90
26589;DHT22;14235;48.532;8.722;2023-02-14T08:43:23;-0.70;99.90
26589;DHT22;14235;48.532;8.722;2023-02-14T08:45:51;-0.60;99.90
26589;DHT22;14235;48.532;8.722;2023-02-14T08:48:17;0.60;99.90
26589;DHT22;14235;48.532;8.722;2023-02-14T08:50:43;0.20;99.90
26589;DHT22;14235;48.532;8.722;2023-02-14T08:53:11;-0.40;99.90
26589;DHT22;14235;48.532;8.722;2023-02-14T08:55:38;-0.30;99.90
26589;DHT22;14235;48.532;8.722;2023-02-14T08:58:04;-0.20;99.90
26589;DHT22;14235;48.532;8.722;2023-02-14T09:00:31;-0.20;99.90
26589;DHT22;14235;48.532;8.722;2023-02-14T09:02:57;-0.10;99.90
26589;DHT22;14235;48.532;8.722;2023-02-14T09:05:23;0.50;99.90
26589;DHT22;14235;48.532;8.722;2023-02-14T09:07:49;-0.10;99.90
26589;DHT22;14235;48.532;8.722;2023-02-14T09:10:15;0.00;99.90
26589;DHT22;14235;48.532;8.722;2023-02-14T09:12:43;0.10;99.90
26589;DHT22;14235;48.532;8.722;2023-02-14T09:15:09;0.20;99.90
26589;DHT22;14235;48.532;8.722;2023-02-14T09:17:36;0.20;99.90
26589;DHT22;14235;48.532;8.722;2023-02-14T09:20:06;0.20;99.90
26589;DHT22;14235;48.532;8.722;2023-02-14T09:22:33;0.40;99.90
26589;DHT22;14235;48.532;8.722;2023-02-14T09:24:59;0.40;99.90
26589;DHT22;14235;48.532;8.722;2023-02-14T09:27:25;0.50;99.90
26589;DHT22;14235;48.532;8.722;2023-02-14T09:29:50;0.50;99.90
26589;DHT22;14235;48.532;8.722;2023-02-14T09:32:16;0.50;99.90
26589;DHT22;14235;48.532;8.722;2023-02-14T09:34:41;0.70;99.90
26589;DHT22;14235;48.532;8.722;2023-02-14T09:37:26;0.70;99.90
26589;DHT22;14235;48.532;8.722;2023-02-14T09:39:51;0.80;99.90
26589;DHT22;14235;48.532;8.722;2023-02-14T09:45:05;1.00;99.90
26589;DHT22;14235;48.532;8.722;2023-02-14T09:47:43;1.00;99.90
26589;DHT22;14235;48.532;8.722;2023-02-14T09:55:54;1.40;99.90
26589;DHT22;14235;48.532;8.722;2023-02-14T09:58:30;1.40;99.90
26589;DHT22;14235;48.532;8.722;2023-02-14T10:06:46;1.70;99.90
26589;DHT22;14235;48.532;8.722;2023-02-14T10:09:23;1.80;99.90
26589;DHT22;14235;48.532;8.722;2023-02-14T10:11:53;1.90;99.90
26589;DHT22;14235;48.532;8.722;2023-02-14T10:14:31;2.00;99.90
26589;DHT22;14235;48.532;8.722;2023-02-14T10:17:03;2.00;99.90
26589;DHT22;14235;48.532;8.722;2023-02-14T10:19:38;2.10;99.90
26589;DHT22;14235;48.532;8.722;2023-02-14T10:22:16;2.20;99.90
26589;DHT22;14235;48.532;8.722;2023-02-14T10:27:33;2.40;99.90
26589;DHT22;14235;48.532;8.722;2023-02-14T10:30:00;2.60;99.90
26589;DHT22;14235;48.532;8.722;2023-02-14T10:32:36;2.40;99.90
26589;DHT22;14235;48.532;8.722;2023-02-14T10:38:26;2.90;99.90
26589;DHT22;14235;48.532;8.722;2023-02-14T10:44:03;3.20;99.90
26589;DHT22;14235;48.532;8.722;2023-02-14T10:47:01;3.30;99.90
26589;DHT22;14235;48.532;8.722;2023-02-14T10:52:17;3.50;99.90
26589;DHT22;14235;48.532;8.722;2023-02-14T10:54:53;3.60;99.90
26589;DHT22;14235;48.532;8.722;2023-02-14T10:57:33;3.80;99.90
26589;DHT22;14235;48.532;8.722;2023-02-14T11:00:07;3.90;99.90
26589;DHT22;14235;48.532;8.722;2023-02-14T11:02:40;4.10;99.90
26589;DHT22;14235;48.532;8.722;2023-02-14T11:05:07;4.20;99.90
26589;DHT22;14235;48.532;8.722;2023-02-14T11:07:38;4.40;99.90
26589;DHT22;14235;48.532;8.722;2023-02-14T11:10:10;4.60;99.90
26589;DHT22;14235;48.532;8.722;2023-02-14T11:12:39;4.80;99.90
26589;DHT22;14235;48.532;8.722;2023-02-14T11:17:49;5.00;99.90
26589;DHT22;14235;48.532;8.722;2023-02-14T11:20:31;5.10;99.90
26589;DHT22;14235;48.532;8.722;2023-02-14T11:22:57;5.20;99.90
26589;DHT22;14235;48.532;8.722;2023-02-14T11:25:24;5.30;99.90
26589;DHT22;14235;48.532;8.722;2023-02-14T11:28:02;5.40;99.90
26589;DHT22;14235;48.532;8.722;2023-02-14T11:30:49;5.50;99.90
26589;DHT22;14235;48.532;8.722;2023-02-14T11:33:41;5.70;99.90
26589;DHT22;14235;48.532;8.722;2023-02-14T11:36:12;5.70;99.90
26589;DHT22;14235;48.532;8.722;2023-02-14T11:38:39;5.90;99.90
26589;DHT22;14235;48.532;8.722;2023-02-14T11:41:08;6.00;99.90
26589;DHT22;14235;48.532;8.722;2023-02-14T11:43:40;6.10;99.90
26589;DHT22;14235;48.532;8.722;2023-02-14T11:46:25;6.20;99.90
26589;DHT22;14235;48.532;8.722;2023-02-14T11:49:05;6.30;99.90
26589;DHT22;14235;48.532;8.722;2023-02-14T11:51:43;6.40;99.90
26589;DHT22;14235;48.532;8.722;2023-02-14T11:54:33;6.50;99.90
26589;DHT22;14235;48.532;8.722;2023-02-14T11:57:10;6.60;99.90
26589;DHT22;14235;48.532;8.722;2023-02-14T11:59:41;6.70;99.90
26589;DHT22;14235;48.532;8.722;2023-02-14T12:02:37;6.80;99.90
26589;DHT22;14235;48.532;8.722;2023-02-14T12:05:30;6.90;99.90
26589;DHT22;14235;48.532;8.722;2023-02-14T12:08:02;7.00;99.90
26589;DHT22;14235;48.532;8.722;2023-02-14T12:10:33;7.10;99.90
26589;DHT22;14235;48.532;8.722;2023-02-14T12:15:38;7.30;99.90
26589;DHT22;14235;48.532;8.722;2023-02-14T12:18:28;7.40;99.90
26589;DHT22;14235;48.532;8.722;2023-02-14T12:23:52;7.70;99.90
26589;DHT22;14235;48.532;8.722;2023-02-14T12:26:23;7.80;99.90
26589;DHT22;14235;48.532;8.722;2023-02-14T12:29:01;7.80;99.90
26589;DHT22;14235;48.532;8.722;2023-02-14T12:31:28;8.00;99.90
26589;DHT22;14235;48.532;8.722;2023-02-14T12:33:55;8.10;99.90
26589;DHT22;14235;48.532;8.722;2023-02-14T12:39:04;8.40;99.90
26589;DHT22;14235;48.532;8.722;2023-02-14T12:41:48;8.50;99.90
26589;DHT22;14235;48.532;8.722;2023-02-14T12:44:33;8.60;99.90
26589;DHT22;14235;48.532;8.722;2023-02-14T12:47:08;8.70;99.90
26589;DHT22;14235;48.532;8.722;2023-02-14T12:52:43;8.90;99.90
26589;DHT22;14235;48.532;8.722;2023-02-14T13:00:52;9.30;99.90
26589;DHT22;14235;48.532;8.722;2023-02-14T13:03:37;9.40;99.90
26589;DHT22;14235;48.532;8.722;2023-02-14T13:16:48;9.60;99.90
26589;DHT22;14235;48.532;8.722;2023-02-14T13:22:00;9.70;99.90
26589;DHT22;14235;48.532;8.722;2023-02-14T13:24:31;9.60;99.90
26589;DHT22;14235;48.532;8.722;2023-02-14T13:27:01;9.80;99.90
26589;DHT22;14235;48.532;8.722;2023-02-14T13:30:01;9.80;99.90
26589;DHT22;14235;48.532;8.722;2023-02-14T13:32:34;9.90;99.90
26589;DHT22;14235;48.532;8.722;2023-02-14T13:35:03;10.10;99.90
26589;DHT22;14235;48.532;8.722;2023-02-14T13:37:32;10.10;99.90
26589;DHT22;14235;48.532;8.722;2023-02-14T13:40:14;10.00;99.90
26589;DHT22;14235;48.532;8.722;2023-02-14T13:48:25;10.60;99.90
26589;DHT22;14235;48.532;8.722;2023-02-14T13:51:15;10.70;99.90
26589;DHT22;14235;48.532;8.722;2023-02-14T13:53:46;10.80;99.90
26589;DHT22;14235;48.532;8.722;2023-02-14T13:58:55;10.90;99.90
26589;DHT22;14235;48.532;8.722;2023-02-14T14:22:49;11.90;99.90
26589;DHT22;14235;48.532;8.722;2023-02-14T14:25:29;12.10;99.90
26589;DHT22;14235;48.532;8.722;2023-02-14T14:27:55;12.20;99.70
26589;DHT22;14235;48.532;8.722;2023-02-14T14:30:25;12.10;99.20
26589;DHT22;14235;48.532;8.722;2023-02-14T14:32:53;12.40;98.80
26589;DHT22;14235;48.532;8.722;2023-02-14T14:35:25;12.80;99.10
26589;DHT22;14235;48.532;8.722;2023-02-14T14:37:53;12.60;99.90
26589;DHT22;14235;48.532;8.722;2023-02-14T14:40:27;12.70;99.90
26589;DHT22;14235;48.532;8.722;2023-02-14T14:42:59;12.80;98.70
26589;DHT22;14235;48.532;8.722;2023-02-14T14:45:29;12.90;99.90
26589;DHT22;14235;48.532;8.722;2023-02-14T14:47:58;13.30;99.90
26589;DHT22;14235;48.532;8.722;2023-02-14T14:50:25;13.80;99.90
26589;DHT22;14235;48.532;8.722;2023-02-14T14:52:54;14.10;99.90
26589;DHT22;14235;48.532;8.722;2023-02-14T14:55:23;14.20;99.90
26589;DHT22;14235;48.532;8.722;2023-02-14T14:57:51;14.10;99.90
26589;DHT22;14235;48.532;8.722;2023-02-14T15:05:44;13.50;99.90
26589;DHT22;14235;48.532;8.722;2023-02-14T15:10:39;14.10;99.90
26589;DHT22;14235;48.532;8.722;2023-02-14T15:13:11;13.90;99.30
26589;DHT22;14235;48.532;8.722;2023-02-14T15:15:56;13.20;99.80
26589;DHT22;14235;48.532;8.722;2023-02-14T15:18:23;12.60;99.90
26589;DHT22;14235;48.532;8.722;2023-02-14T15:20:51;12.00;98.90
26589;DHT22;14235;48.532;8.722;2023-02-14T15:23:20;11.70;99.90
26589;DHT22;14235;48.532;8.722;2023-02-14T15:25:48;11.30;98.10
26589;DHT22;14235;48.532;8.722;2023-02-14T15:28:31;10.90;98.60
26589;DHT22;14235;48.532;8.722;2023-02-14T15:31:04;10.60;99.90
26589;DHT22;14235;48.532;8.722;2023-02-14T15:33:31;10.40;99.80
26589;DHT22;14235;48.532;8.722;2023-02-14T15:36:02;10.10;99.90
26589;DHT22;14235;48.532;8.722;2023-02-14T15:38:29;9.90;99.90
26589;DHT22;14235;48.532;8.722;2023-02-14T15:40:55;9.80;99.90
26589;DHT22;14235;48.532;8.722;2023-02-14T15:43:32;9.60;99.90
26589;DHT22;14235;48.532;8.722;2023-02-14T15:46:18;9.50;99.90
26589;DHT22;14235;48.532;8.722;2023-02-14T15:48:45;9.50;99.90
26589;DHT22;14235;48.532;8.722;2023-02-14T15:51:31;9.30;99.90
26589;DHT22;14235;48.532;8.722;2023-02-14T15:54:03;9.20;99.90
26589;DHT22;14235;48.532;8.722;2023-02-14T15:56:34;9.20;99.90
26589;DHT22;14235;48.532;8.722;2023-02-14T15:59:03;9.00;99.90
26589;DHT22;14235;48.532;8.722;2023-02-14T16:01:32;9.10;99.90
26589;DHT22;14235;48.532;8.722;2023-02-14T16:04:01;9.00;99.90
26589;DHT22;14235;48.532;8.722;2023-02-14T16:06:37;8.90;99.90
26589;DHT22;14235;48.532;8.722;2023-02-14T16:09:06;8.80;99.90
26589;DHT22;14235;48.532;8.722;2023-02-14T16:11:46;8.80;99.90
26589;DHT22;14235;48.532;8.722;2023-02-14T16:14:33;8.70;99.90
26589;DHT22;14235;48.532;8.722;2023-02-14T16:17:03;8.60;99.90
26589;DHT22;14235;48.532;8.722;2023-02-14T16:19:43;8.50;99.90
26589;DHT22;14235;48.532;8.722;2023-02-14T16:22:11;8.50;99.90
26589;DHT22;14235;48.532;8.722;2023-02-14T16:24:38;8.40;99.90
26589;DHT22;14235;48.532;8.722;2023-02-14T16:27:04;8.40;99.90
26589;DHT22;14235;48.532;8.722;2023-02-14T16:29:34;8.30;99.90
26589;DHT22;14235;48.532;8.722;2023-02-14T16:32:09;8.20;99.90
26589;DHT22;14235;48.532;8.722;2023-02-14T16:34:34;8.20;99.90
26589;DHT22;14235;48.532;8.722;2023-02-14T16:37:06;8.20;99.90
26589;DHT22;14235;48.532;8.722;2023-02-14T16:39:33;8.10;99.90
26589;DHT22;14235;48.532;8.722;2023-02-14T16:41:59;8.10;99.90
26589;DHT22;14235;48.532;8.722;2023-02-14T16:44:27;8.00;99.90
26589;DHT22;14235;48.532;8.722;2023-02-14T16:46:52;8.00;99.90
26589;DHT22;14235;48.532;8.722;2023-02-14T16:49:18;7.90;99.90
26589;DHT22;14235;48.532;8.722;2023-02-14T16:51:45;8.00;99.90
26589;DHT22;14235;48.532;8.722;2023-02-14T16:54:19;7.70;99.90
26589;DHT22;14235;48.532;8.722;2023-02-14T16:56:54;7.60;99.90
26589;DHT22;14235;48.532;8.722;2023-02-14T16:59:21;7.60;99.90
26589;DHT22;14235;48.532;8.722;2023-02-14T17:01:46;7.50;99.90
26589;DHT22;14235;48.532;8.722;2023-02-14T17:04:13;7.50;99.90
26589;DHT22;14235;48.532;8.722;2023-02-14T17:06:42;7.40;99.90
26589;DHT22;14235;48.532;8.722;2023-02-14T17:09:13;7.40;99.90
26589;DHT22;14235;48.532;8.722;2023-02-14T17:11:42;7.30;99.90
26589;DHT22;14235;48.532;8.722;2023-02-14T17:14:12;7.30;99.90
26589;DHT22;14235;48.532;8.722;2023-02-14T17:16:39;7.20;99.90
26589;DHT22;14235;48.532;8.722;2023-02-14T17:19:05;7.30;99.90
26589;DHT22;14235;48.532;8.722;2023-02-14T17:21:31;7.10;99.90
26589;DHT22;14235;48.532;8.722;2023-02-14T17:23:58;6.90;99.90
26589;DHT22;14235;48.532;8.722;2023-02-14T17:26:24;6.90;99.90
26589;DHT22;14235;48.532;8.722;2023-02-14T17:28:49;6.90;99.90
26589;DHT22;14235;48.532;8.722;2023-02-14T17:31:15;6.80;99.90
26589;DHT22;14235;48.532;8.722;2023-02-14T17:33:40;6.70;99.90
26589;DHT22;14235;48.532;8.722;2023-02-14T17:36:12;6.60;99.90
26589;DHT22;14235;48.532;8.722;2023-02-14T17:38:39;6.50;99.90
26589;DHT22;14235;48.532;8.722;2023-02-14T17:41:22;6.50;99.90
26589;DHT22;14235;48.532;8.722;2023-02-14T17:43:48;6.50;99.90
26589;DHT22;14235;48.532;8.722;2023-02-14T17:46:14;6.50;99.90
26589;DHT22;14235;48.532;8.722;2023-02-14T17:48:41;6.40;99.90
26589;DHT22;14235;48.532;8.722;2023-02-14T17:51:09;6.40;99.90
26589;DHT22;14235;48.532;8.722;2023-02-14T17:53:36;6.40;99.90
26589;DHT22;14235;48.532;8.722;2023-02-14T17:56:08;6.40;99.90
26589;DHT22;14235;48.532;8.722;2023-02-14T17:58:35;6.30;99.90
26589;DHT22;14235;48.532;8.722;2023-02-14T18:01:06;6.10;99.90
26589;DHT22;14235;48.532;8.722;2023-02-14T18:03:32;6.10;99.90
26589;DHT22;14235;48.532;8.722;2023-02-14T18:05:59;6.10;99.90
26589;DHT22;14235;48.532;8.722;2023-02-14T18:08:29;5.90;99.90
26589;DHT22;14235;48.532;8.722;2023-02-14T18:10:55;5.90;99.90
26589;DHT22;14235;48.532;8.722;2023-02-14T18:13:23;5.90;99.90
26589;DHT22;14235;48.532;8.722;2023-02-14T18:15:49;5.90;99.90
26589;DHT22;14235;48.532;8.722;2023-02-14T18:18:15;5.90;99.90
26589;DHT22;14235;48.532;8.722;2023-02-14T18:20:41;5.80;99.90
26589;DHT22;14235;48.532;8.722;2023-02-14T18:23:06;5.70;99.90
26589;DHT22;14235;48.532;8.722;2023-02-14T18:25:33;5.80;99.90
26589;DHT22;14235;48.532;8.722;2023-02-14T18:27:59;5.50;99.90
26589;DHT22;14235;48.532;8.722;2023-02-14T18:30:24;5.60;99.90
26589;DHT22;14235;48.532;8.722;2023-02-14T18:32:50;5.60;99.90
26589;DHT22;14235;48.532;8.722;2023-02-14T18:35:15;5.50;99.90
26589;DHT22;14235;48.532;8.722;2023-02-14T18:37:41;5.50;99.90
26589;DHT22;14235;48.532;8.722;2023-02-14T18:40:08;5.40;99.90